TimeEST,TemperatureF,Dew PointF,Humidity,Sea Level PressureIn,VisibilityMPH,Wind Direction,Wind SpeedMPH,Gust SpeedMPH,PrecipitationIn,Events,Conditions,WindDirDegrees,DateUTC
12:07 AM,15.8,12.2,86,29.94,4.0,West,13.8,20.7,N/A,Snow,Light Snow,270,2013-02-21 05:07:00
12:23 AM,15.8,12.2,86,29.95,4.0,West,11.5,19.6,N/A,Snow,Light Snow,280,2013-02-21 05:23:00
12:25 AM,15.8,12.2,86,29.95,4.0,West,11.5,19.6,N/A,Snow,Light Snow,270,2013-02-21 05:25:00
12:37 AM,15.8,12.2,86,29.95,3.0,West,11.5,18.4,N/A,Snow,Light Snow,270,2013-02-21 05:37:00
12:55 AM,14.9,12.2,89,29.95,4.0,West,8.1,18.4,0.00,Snow,Light Snow,280,2013-02-21 05:55:00
12:59 AM,14.0,12.2,93,29.95,4.0,West,9.2,-,N/A,Snow,Light Snow,270,2013-02-21 05:59:00
1:09 AM,14.0,12.2,93,29.96,3.0,West,10.4,-,N/A,Snow,Light Snow,280,2013-02-21 06:09:00
1:11 AM,14.0,12.2,93,29.95,2.5,West,11.5,17.3,N/A,Snow,Light Snow,270,2013-02-21 06:11:00
1:23 AM,14.0,12.2,93,29.95,3.0,West,9.2,-,N/A,Snow,Light Snow,280,2013-02-21 06:23:00
1:29 AM,14.0,12.2,93,29.95,4.0,West,10.4,-,N/A,Snow,Light Snow,270,2013-02-21 06:29:00
1:50 AM,14.0,12.2,93,29.96,2.5,West,11.5,-,N/A,Snow,Light Snow,270,2013-02-21 06:50:00
1:53 AM,14.0,12.2,93,29.96,2.0,West,9.2,-,N/A,Snow,Light Snow,270,2013-02-21 06:53:00
1:55 AM,14.2,11.5,89,29.96,2.0,West,10.4,-,0.00,Snow,Light Snow,280,2013-02-21 06:55:00
2:00 AM,14.0,12.2,93,29.95,2.5,West,9.2,-,N/A,Snow,Light Snow,270,2013-02-21 07:00:00
2:02 AM,14.0,12.2,93,29.95,2.5,West,10.4,-,N/A,Snow,Light Snow,270,2013-02-21 07:02:00
2:04 AM,14.0,12.2,93,29.95,2.5,West,10.4,-,N/A,Snow,Light Snow,260,2013-02-21 07:04:00
2:05 AM,14.0,12.2,93,29.95,2.5,West,11.5,-,N/A,Snow,Light Snow,270,2013-02-21 07:05:00
2:07 AM,14.0,12.2,93,29.95,3.0,West,9.2,-,N/A,Snow,Light Snow,280,2013-02-21 07:07:00
2:19 AM,14.0,12.2,93,29.96,2.5,West,8.1,-,N/A,Snow,Light Snow,280,2013-02-21 07:19:00
2:21 AM,14.0,12.2,93,29.96,2.5,West,8.1,-,N/A,Snow,Light Snow,280,2013-02-21 07:21:00
2:23 AM,14.0,12.2,93,29.96,2.0,West,9.2,-,N/A,Snow,Light Snow,280,2013-02-21 07:23:00
2:30 AM,14.0,12.2,93,29.96,1.8,West,9.2,-,N/A,Snow,Light Snow,280,2013-02-21 07:30:00
2:35 AM,14.0,12.2,93,29.96,1.2,WNW,9.2,-,N/A,Snow,Light Snow,290,2013-02-21 07:35:00
2:38 AM,14.0,12.2,93,29.96,1.0,WNW,11.5,-,N/A,Snow,Light Snow,290,2013-02-21 07:38:00
2:39 AM,14.0,12.2,93,29.96,1.0,WNW,11.5,-,N/A,Snow,Light Snow,300,2013-02-21 07:39:00
2:41 AM,14.0,12.2,93,29.96,1.0,NW,8.1,-,N/A,Snow,Light Snow,310,2013-02-21 07:41:00
2:42 AM,14.0,12.2,93,29.96,1.0,NNW,5.8,-,N/A,Snow,Light Snow,330,2013-02-21 07:42:00
2:43 AM,14.0,12.2,93,29.96,1.0,NNW,5.8,-,N/A,Snow,Light Snow,340,2013-02-21 07:43:00
2:47 AM,12.2,10.4,92,29.96,1.2,NNW,9.2,-,N/A,Snow,Light Snow,330,2013-02-21 07:47:00
2:51 AM,12.2,10.4,92,29.96,1.5,NNW,6.9,-,N/A,Snow,Light Snow,330,2013-02-21 07:51:00
2:55 AM,12.6,10.4,91,29.96,1.8,NW,9.2,-,0.00,Snow,Light Snow,310,2013-02-21 07:55:00
2:56 AM,12.2,10.4,92,29.96,2.0,NW,11.5,-,N/A,Snow,Light Snow,320,2013-02-21 07:56:00
2:59 AM,12.2,10.4,92,29.96,2.5,NW,9.2,-,N/A,Snow,Light Snow,320,2013-02-21 07:59:00
3:00 AM,12.2,10.4,92,29.97,2.5,NW,8.1,-,N/A,Snow,Light Snow,320,2013-02-21 08:00:00
3:02 AM,12.2,10.4,92,29.97,3.0,NW,9.2,-,N/A,Snow,Light Snow,320,2013-02-21 08:02:00
3:06 AM,12.2,8.6,85,29.97,4.0,NW,8.1,-,N/A,Snow,Light Snow,320,2013-02-21 08:06:00
3:08 AM,12.2,8.6,85,29.97,4.0,NW,5.8,-,N/A,Snow,Light Snow,320,2013-02-21 08:08:00
3:11 AM,12.2,8.6,85,29.98,2.5,NNW,15.0,-,N/A,Snow,Light Snow,330,2013-02-21 08:11:00
3:13 AM,12.2,8.6,85,29.98,2.0,NNW,13.8,18.4,N/A,Snow,Light Snow,340,2013-02-21 08:13:00
3:15 AM,10.4,8.6,92,29.98,2.0,NNW,10.4,18.4,N/A,Snow,Light Snow,340,2013-02-21 08:15:00
3:17 AM,10.4,8.6,92,29.98,1.8,NNW,10.4,18.4,N/A,Snow,Light Snow,340,2013-02-21 08:17:00
3:30 AM,8.6,6.8,92,29.99,2.0,North,9.2,-,N/A,Snow,Light Snow,360,2013-02-21 08:30:00
3:32 AM,8.6,5.0,85,29.99,2.0,North,9.2,-,N/A,Snow,Light Snow,350,2013-02-21 08:32:00
3:34 AM,8.6,5.0,85,29.99,2.5,North,8.1,-,N/A,Snow,Light Snow,350,2013-02-21 08:34:00
3:39 AM,8.6,5.0,85,29.99,3.0,North,9.2,-,N/A,Snow,Light Snow,350,2013-02-21 08:39:00
3:40 AM,8.6,5.0,85,29.99,3.0,North,9.2,-,N/A,Snow,Light Snow,350,2013-02-21 08:40:00
3:50 AM,8.6,5.0,85,30.00,4.0,North,8.1,-,N/A,Snow,Light Snow,360,2013-02-21 08:50:00
3:52 AM,8.6,5.0,85,30.00,4.0,North,8.1,-,N/A,Snow,Light Snow,350,2013-02-21 08:52:00
3:53 AM,8.6,5.0,85,30.00,4.0,NNW,6.9,-,N/A,Snow,Light Snow,340,2013-02-21 08:53:00
3:55 AM,7.9,4.8,87,30.00,5.0,North,8.1,-,0.00,Snow,Light Snow,350,2013-02-21 08:55:00
4:55 AM,7.0,3.2,84,30.02,10.0,North,5.8,-,0.00,Snow,Light Snow,350,2013-02-21 09:55:00
4:56 AM,6.8,3.2,85,30.02,10.0,NNW,5.8,-,N/A,Snow,Light Snow,340,2013-02-21 09:56:00
5:05 AM,6.8,3.2,85,30.03,10.0,North,5.8,-,N/A,,Overcast,350,2013-02-21 10:05:00
5:54 AM,6.8,3.2,85,30.05,10.0,NNW,8.1,17.3,N/A,,Overcast,340,2013-02-21 10:54:00
5:55 AM,7.2,2.1,80,30.05,10.0,NNW,6.9,17.3,0.00,,Overcast,330,2013-02-21 10:55:00
6:33 AM,6.8,-0.4,72,30.07,10.0,NW,5.8,-,N/A,,Overcast,310,2013-02-21 11:33:00
6:55 AM,5.4,-0.6,76,30.08,10.0,Variable,4.6,-,N/A,,Overcast,0,2013-02-21 11:55:00
7:19 AM,5.0,-2.2,72,30.09,10.0,WNW,6.9,-,N/A,Snow,Light Snow,300,2013-02-21 12:19:00
7:25 AM,5.0,-2.2,72,30.10,10.0,NW,5.8,-,N/A,,Overcast,310,2013-02-21 12:25:00
7:41 AM,5.0,-2.2,72,30.11,10.0,WNW,6.9,-,N/A,Snow,Light Snow,300,2013-02-21 12:41:00
7:55 AM,5.4,-2.0,72,30.12,10.0,WNW,4.6,-,0.00,Snow,Light Snow,300,2013-02-21 12:55:00
8:04 AM,5.0,-2.2,72,30.12,10.0,Variable,5.8,-,N/A,,Mostly Cloudy,0,2013-02-21 13:04:00
8:13 AM,5.0,-2.2,72,30.12,10.0,West,8.1,-,N/A,,Overcast,280,2013-02-21 13:13:00
8:55 AM,10.4,8.6,92,30.07,6.0,WNW,10.4,-,N/A,Snow,Light Snow,290,2013-02-21 13:55:00
9:15 AM,6.8,-0.4,72,30.09,6.0,NW,9.2,-,N/A,Snow,Light Snow,320,2013-02-21 14:15:00
9:55 AM,8.4,0.3,70,30.10,10.0,WNW,9.2,-,0.00,Snow,Light Snow,290,2013-02-21 14:55:00
9:56 AM,8.6,-0.4,67,30.10,10.0,WNW,6.9,-,N/A,Snow,Light Snow,290,2013-02-21 14:56:00
9:59 AM,8.6,-0.4,67,30.11,10.0,NW,8.1,-,N/A,Snow,Light Snow,310,2013-02-21 14:59:00
10:00 AM,8.6,-0.4,67,30.11,10.0,NW,6.9,-,N/A,Snow,Light Snow,310,2013-02-21 15:00:00
10:02 AM,8.6,-0.4,67,30.11,10.0,WNW,8.1,-,N/A,Snow,Light Snow,290,2013-02-21 15:02:00
10:04 AM,8.6,-0.4,67,30.11,10.0,Variable,6.9,-,N/A,Snow,Light Snow,0,2013-02-21 15:04:00
10:07 AM,8.6,-0.4,67,30.11,10.0,WNW,9.2,-,N/A,Snow,Light Snow,290,2013-02-21 15:07:00
10:40 AM,10.4,1.4,67,30.12,10.0,WSW,6.9,-,N/A,Snow,Light Snow,250,2013-02-21 15:40:00
10:41 AM,10.4,1.4,67,30.12,10.0,West,8.1,-,N/A,Snow,Light Snow,260,2013-02-21 15:41:00
10:43 AM,10.4,1.4,67,30.12,10.0,West,9.2,-,N/A,Snow,Light Snow,280,2013-02-21 15:43:00
10:45 AM,10.4,1.4,67,30.12,10.0,West,8.1,-,N/A,Snow,Light Snow,280,2013-02-21 15:45:00
10:47 AM,10.4,1.4,67,30.12,10.0,West,8.1,-,N/A,Snow,Light Snow,260,2013-02-21 15:47:00
10:55 AM,10.6,1.0,65,30.12,10.0,West,9.2,-,0.00,Snow,Light Snow,270,2013-02-21 15:55:00
11:01 AM,10.4,1.4,67,30.13,10.0,West,6.9,-,N/A,Snow,Light Snow,270,2013-02-21 16:01:00
11:19 AM,10.4,1.4,67,30.13,10.0,WNW,9.2,-,N/A,,Overcast,300,2013-02-21 16:19:00
11:48 AM,10.4,1.4,67,30.14,10.0,WSW,10.4,-,N/A,,Overcast,250,2013-02-21 16:48:00
11:51 AM,10.4,1.4,67,30.15,10.0,WNW,8.1,-,N/A,,Overcast,290,2013-02-21 16:51:00
11:55 AM,11.1,1.8,66,30.15,10.0,WNW,8.1,-,0.00,,Overcast,290,2013-02-21 16:55:00
12:11 PM,12.2,1.4,62,30.15,10.0,WNW,10.4,-,N/A,Snow,Light Snow,290,2013-02-21 17:11:00
12:19 PM,12.2,3.2,67,30.15,10.0,West,9.2,-,N/A,,Overcast,270,2013-02-21 17:19:00
12:55 PM,12.9,3.6,66,30.15,10.0,West,8.1,-,0.00,,Overcast,280,2013-02-21 17:55:00
12:56 PM,12.2,3.2,67,30.15,10.0,West,6.9,-,N/A,Snow,Light Snow,270,2013-02-21 17:56:00
1:28 PM,14.0,5.0,67,30.15,10.0,Variable,5.8,-,N/A,Snow,Light Snow,0,2013-02-21 18:28:00
1:47 PM,14.0,5.0,67,30.16,10.0,Variable,5.8,-,N/A,,Overcast,0,2013-02-21 18:47:00
1:55 PM,13.8,4.5,66,30.16,10.0,West,5.8,-,0.00,,Overcast,270,2013-02-21 18:55:00
2:27 PM,14.0,5.0,67,30.17,10.0,WNW,5.8,-,N/A,Snow,Light Snow,300,2013-02-21 19:27:00
2:45 PM,14.0,5.0,67,30.18,7.0,West,6.9,-,N/A,Snow,Light Snow,280,2013-02-21 19:45:00
2:52 PM,15.8,5.0,62,30.18,10.0,Variable,5.8,-,N/A,Snow,Light Snow,0,2013-02-21 19:52:00
2:55 PM,15.4,6.1,67,30.18,10.0,West,8.1,-,0.00,Snow,Light Snow,270,2013-02-21 19:55:00
3:03 PM,15.8,6.8,68,30.18,10.0,NW,6.9,-,N/A,Snow,Light Snow,320,2013-02-21 20:03:00
3:17 PM,15.8,6.8,68,30.19,10.0,West,4.6,-,N/A,,Overcast,260,2013-02-21 20:17:00
3:18 PM,15.8,6.8,68,30.19,10.0,West,6.9,-,N/A,Snow,Light Snow,270,2013-02-21 20:18:00
3:21 PM,15.8,6.8,68,30.19,10.0,West,6.9,-,N/A,,Overcast,280,2013-02-21 20:21:00
3:55 PM,15.4,6.4,68,30.20,10.0,West,5.8,-,0.00,,Overcast,260,2013-02-21 20:55:00
4:55 PM,15.8,7.0,68,30.23,10.0,SW,6.9,-,N/A,,Overcast,230,2013-02-21 21:55:00
5:55 PM,15.6,8.8,74,30.25,10.0,WSW,5.8,-,N/A,,Overcast,240,2013-02-21 22:55:00
6:31 PM,15.8,8.6,73,30.26,10.0,WSW,6.9,-,N/A,,Overcast,250,2013-02-21 23:31:00
6:49 PM,15.8,8.6,73,30.26,10.0,SW,8.1,-,N/A,,Overcast,230,2013-02-21 23:49:00
6:55 PM,16.0,9.5,76,30.26,10.0,SW,5.8,-,N/A,,Overcast,230,2013-02-21 23:55:00
7:11 PM,15.8,10.4,79,30.26,10.0,WSW,3.5,-,N/A,,Overcast,240,2013-02-22 00:11:00
7:55 PM,17.2,10.9,76,30.29,10.0,WSW,8.1,-,N/A,,Overcast,240,2013-02-22 00:55:00
8:07 PM,17.6,12.2,79,30.31,10.0,WSW,9.2,-,N/A,,Overcast,240,2013-02-22 01:07:00
8:55 PM,19.0,14.7,83,30.34,10.0,WSW,9.2,-,N/A,,Overcast,250,2013-02-22 01:55:00
9:55 PM,21.2,16.7,83,30.43,10.0,West,6.9,-,N/A,,Overcast,260,2013-02-22 02:55:00
10:00 PM,21.2,17.6,86,30.42,10.0,Variable,5.8,-,N/A,Snow,Light Snow,0,2013-02-22 03:00:00
10:15 PM,21.2,17.6,86,30.42,10.0,West,4.6,-,N/A,,Overcast,270,2013-02-22 03:15:00
10:40 PM,21.2,17.6,86,30.43,10.0,WSW,4.6,-,N/A,,Overcast,250,2013-02-22 03:40:00
10:55 PM,21.6,17.2,83,30.43,10.0,Calm,Calm,-,0.00,,Overcast,0,2013-02-22 03:55:00
11:08 PM,21.2,17.6,86,30.42,10.0,Calm,Calm,-,N/A,,Scattered Clouds,0,2013-02-22 04:08:00
11:12 PM,21.2,15.8,80,30.42,10.0,Calm,Calm,-,N/A,,Mostly Cloudy,0,2013-02-22 04:12:00
11:23 PM,19.4,15.8,86,30.42,10.0,ENE,3.5,-,N/A,,Scattered Clouds,60,2013-02-22 04:23:00
11:55 PM,16.9,13.6,87,30.41,10.0,NE,3.5,-,N/A,,Scattered Clouds,50,2013-02-22 04:55:00
11:57 PM,17.6,14.0,86,30.41,10.0,NE,3.5,-,N/A,,Mostly Cloudy,50,2013-02-22 04:57:00